createdAt,value
2023-03-21T00:01:30.908Z,10.27
2023-03-21T00:04:48.561Z,10.55
2023-03-21T00:07:53.825Z,10.85
2023-03-21T00:11:05.293Z,11.07
2023-03-21T00:14:09.102Z,11.67
2023-03-21T00:17:12.355Z,10.98
2023-03-21T00:20:17.912Z,11.77
2023-03-21T00:23:21.220Z,12.00
2023-03-21T00:26:24.166Z,12.30
2023-03-21T00:29:27.284Z,12.20
2023-03-21T00:32:30.031Z,12.32
2023-03-21T00:35:57.778Z,12.02
2023-03-21T00:38:56.012Z,11.70
2023-03-21T00:41:59.074Z,11.17
2023-03-21T00:45:02.263Z,11.50
2023-03-21T00:48:06.213Z,11.30
2023-03-21T00:51:18.783Z,11.35
2023-03-21T00:54:22.003Z,11.65
2023-03-21T00:57:38.157Z,11.70
2023-03-21T01:00:43.789Z,11.47
2023-03-21T01:03:51.197Z,12.52
2023-03-21T01:06:55.126Z,10.95
2023-03-21T01:09:57.833Z,11.12
2023-03-21T01:13:01.832Z,10.87
2023-03-21T01:16:08.290Z,11.27
2023-03-21T01:19:25.172Z,11.98
2023-03-21T01:22:30.929Z,12.02
2023-03-21T01:25:34.066Z,11.15
2023-03-21T01:28:38.113Z,11.60
2023-03-21T01:31:41.289Z,11.10
2023-03-21T01:34:43.958Z,11.40
2023-03-21T01:37:48.832Z,11.73
2023-03-21T01:40:52.044Z,11.48
2023-03-21T01:43:56.169Z,11.80
2023-03-21T01:47:11.908Z,11.50
2023-03-21T01:50:17.347Z,10.65
2023-03-21T01:53:24.454Z,11.20
2023-03-21T01:56:34.834Z,11.45
2023-03-21T01:59:54.528Z,10.53
2023-03-21T02:03:11.507Z,10.40
2023-03-21T02:06:22.211Z,11.25
2023-03-21T02:09:32.027Z,10.80
2023-03-21T02:12:35.119Z,11.10
2023-03-21T02:15:40.682Z,10.50
2023-03-21T02:19:08.496Z,9.80
2023-03-21T02:23:02.485Z,10.95
2023-03-21T02:26:21.248Z,10.82
2023-03-21T02:29:27.279Z,10.43
2023-03-21T02:33:00.451Z,10.33
2023-03-21T02:36:28.703Z,11.17
2023-03-21T02:39:55.964Z,10.90
2023-03-21T02:43:22.949Z,9.45
2023-03-21T02:46:45.568Z,10.15
2023-03-21T02:50:12.650Z,9.87
2023-03-21T02:53:20.173Z,8.80
2023-03-21T02:56:26.336Z,9.75
2023-03-21T02:59:32.794Z,10.13
2023-03-21T03:02:38.408Z,9.68
2023-03-21T03:06:03.939Z,10.03
2023-03-21T03:09:06.664Z,9.50
2023-03-21T03:12:24.856Z,9.20
2023-03-21T03:15:54.176Z,9.90
2023-03-21T03:19:01.816Z,11.38
2023-03-21T03:22:10.591Z,11.13
2023-03-21T03:25:32.431Z,10.67
2023-03-21T03:28:49.077Z,10.80
2023-03-21T03:32:02.200Z,10.48
2023-03-21T03:35:07.228Z,10.77
2023-03-21T03:38:12.942Z,10.37
2023-03-21T03:41:25.609Z,9.93
2023-03-21T03:44:30.251Z,10.10
2023-03-21T03:47:57.144Z,9.98
2023-03-21T03:51:29.257Z,10.13
2023-03-21T03:54:46.723Z,9.37
2023-03-21T03:57:50.285Z,10.50
2023-03-21T04:00:55.487Z,9.65
2023-03-21T04:04:12.324Z,11.63
2023-03-21T04:07:16.621Z,10.50
2023-03-21T04:10:23.943Z,11.10
2023-03-21T04:13:27.641Z,11.27
2023-03-21T04:16:35.883Z,10.73
2023-03-21T04:19:38.886Z,10.93
2023-03-21T04:22:42.327Z,11.02
2023-03-21T04:25:55.891Z,10.80
2023-03-21T04:29:05.833Z,10.43
2023-03-21T04:32:16.554Z,10.32
2023-03-21T04:35:20.445Z,10.80
2023-03-21T04:38:24.640Z,11.55
2023-03-21T04:41:28.662Z,10.70
2023-03-21T04:44:32.472Z,10.47
2023-03-21T04:47:36.895Z,9.85
2023-03-21T04:50:40.785Z,10.23
2023-03-21T04:53:46.110Z,10.85
2023-03-21T04:56:48.817Z,10.10
2023-03-21T04:59:51.826Z,10.53
2023-03-21T05:02:54.732Z,10.95
